KAMG/AMG METAR and TAF weather

Enter ICAO airport designator
Station Type Date Time Source
KAMG METAR 2018/12/12 15:53 UTC NOAA

KAMG 121553Z AUTO VRB03KT 10SM CLR 11/M01 A3031 RMK AO2 SLP264 T01111006


Station Type Date Time Source
KAMG Decoded METAR 2018/12/12 15:53 UTC NOAA

ALMA BACON COUNTY AIRPORT, GA, United States (KAMG) 31-32N 82-30W 59M
Dec 12, 2018 - 10:53 AM EST / 2018.12.12 1553 UTC
Wind: Variable at 3 MPH (3 KT):0
Visibility: 10 mile(s):0
Sky conditions: clear
Temperature: 52.0 F (11.1 C)
Dew Point: 30.9 F (-0.6 C)
Relative Humidity: 44%
Pressure (altimeter): 30.31 in. Hg (1026 hPa)
ob: KAMG 121553Z AUTO VRB03KT 10SM CLR 11/M01 A3031 RMK AO2 SLP264 T01111006
cycle: 16

Station Type Date Time Source
KAMG TAF UTC NOAA

Error!


Example: see airport list